sensor_id;sensor_type;location;lat;lon;timestamp;pressure;altitude;pressure_sealevel;temperature;humidity
54870;BME280;40756;-37.950;145.008;2022-07-29T00:00:44;102664.52;;;9.97;54.97
54870;BME280;40756;-37.950;145.008;2022-07-29T00:03:14;102662.39;;;9.99;54.36
54870;BME280;40756;-37.950;145.008;2022-07-29T00:05:44;102668.98;;;10.19;55.86
54870;BME280;40756;-37.950;145.008;2022-07-29T00:08:13;102669.40;;;9.61;55.39
54870;BME280;40756;-37.950;145.008;2022-07-29T00:10:44;102671.93;;;9.67;55.92
54870;BME280;40756;-37.950;145.008;2022-07-29T00:13:13;102672.19;;;10.11;55.06
54870;BME280;40756;-37.950;145.008;2022-07-29T00:15:43;102672.38;;;9.95;54.82
54870;BME280;40756;-37.950;145.008;2022-07-29T00:18:13;102669.69;;;10.44;54.23
54870;BME280;40756;-37.950;145.008;2022-07-29T00:20:42;102670.74;;;9.98;54.18
54870;BME280;40756;-37.950;145.008;2022-07-29T00:23:12;102671.76;;;9.79;54.95
54870;BME280;40756;-37.950;145.008;2022-07-29T00:25:42;102665.36;;;10.31;53.69
54870;BME280;40756;-37.950;145.008;2022-07-29T00:28:12;102669.19;;;10.37;53.52
54870;BME280;40756;-37.950;145.008;2022-07-29T00:30:42;102666.00;;;10.83;53.21
54870;BME280;40756;-37.950;145.008;2022-07-29T00:33:11;102670.82;;;10.37;53.61
54870;BME280;40756;-37.950;145.008;2022-07-29T00:35:41;102675.69;;;10.77;52.82
54870;BME280;40756;-37.950;145.008;2022-07-29T00:38:11;102676.12;;;10.34;53.31
54870;BME280;40756;-37.950;145.008;2022-07-29T00:40:44;102678.86;;;10.68;52.48
54870;BME280;40756;-37.950;145.008;2022-07-29T00:43:14;102676.55;;;11.15;51.65
54870;BME280;40756;-37.950;145.008;2022-07-29T00:45:44;102680.46;;;10.24;52.74
54870;BME280;40756;-37.950;145.008;2022-07-29T00:48:13;102682.40;;;11.33;52.56
54870;BME280;40756;-37.950;145.008;2022-07-29T00:50:43;102687.34;;;10.37;53.19
54870;BME280;40756;-37.950;145.008;2022-07-29T00:53:13;102691.86;;;10.11;54.50
54870;BME280;40756;-37.950;145.008;2022-07-29T00:55:42;102692.34;;;10.70;53.20
54870;BME280;40756;-37.950;145.008;2022-07-29T00:58:13;102692.85;;;10.95;52.46
54870;BME280;40756;-37.950;145.008;2022-07-29T01:00:43;102693.99;;;10.48;53.42
54870;BME280;40756;-37.950;145.008;2022-07-29T01:03:13;102697.44;;;9.89;54.25
54870;BME280;40756;-37.950;145.008;2022-07-29T01:05:44;102697.94;;;10.68;53.33
54870;BME280;40756;-37.950;145.008;2022-07-29T01:08:16;102706.20;;;9.56;54.27
54870;BME280;40756;-37.950;145.008;2022-07-29T01:10:47;102705.30;;;9.11;55.56
54870;BME280;40756;-37.950;145.008;2022-07-29T01:13:17;102700.38;;;9.64;54.47
54870;BME280;40756;-37.950;145.008;2022-07-29T01:15:51;102698.49;;;10.51;54.48
54870;BME280;40756;-37.950;145.008;2022-07-29T01:18:30;102691.26;;;10.42;53.07
54870;BME280;40756;-37.950;145.008;2022-07-29T01:21:20;102694.99;;;9.47;54.74
54870;BME280;40756;-37.950;145.008;2022-07-29T01:24:32;102691.68;;;10.47;52.64
54870;BME280;40756;-37.950;145.008;2022-07-29T01:27:12;102684.52;;;10.07;52.88
54870;BME280;40756;-37.950;145.008;2022-07-29T01:29:51;102684.57;;;10.72;52.31
54870;BME280;40756;-37.950;145.008;2022-07-29T01:32:24;102681.40;;;10.12;53.58
54870;BME280;40756;-37.950;145.008;2022-07-29T01:34:58;102680.65;;;10.32;53.03
54870;BME280;40756;-37.950;145.008;2022-07-29T01:37:36;102678.64;;;10.42;52.54
54870;BME280;40756;-37.950;145.008;2022-07-29T01:40:11;102677.77;;;10.51;52.23
54870;BME280;40756;-37.950;145.008;2022-07-29T01:42:47;102677.32;;;10.23;52.98
54870;BME280;40756;-37.950;145.008;2022-07-29T01:45:21;102675.21;;;10.41;52.46
54870;BME280;40756;-37.950;145.008;2022-07-29T01:47:58;102676.98;;;9.75;52.97
54870;BME280;40756;-37.950;145.008;2022-07-29T01:50:35;102668.66;;;10.72;52.20
54870;BME280;40756;-37.950;145.008;2022-07-29T01:53:08;102668.60;;;10.43;52.26
54870;BME280;40756;-37.950;145.008;2022-07-29T01:55:42;102663.43;;;10.23;51.33
54870;BME280;40756;-37.950;145.008;2022-07-29T01:58:13;102660.38;;;10.85;52.27
54870;BME280;40756;-37.950;145.008;2022-07-29T02:00:45;102656.18;;;11.64;50.62
54870;BME280;40756;-37.950;145.008;2022-07-29T02:03:17;102651.55;;;10.76;50.98
54870;BME280;40756;-37.950;145.008;2022-07-29T02:05:49;102648.28;;;10.89;48.74
54870;BME280;40756;-37.950;145.008;2022-07-29T02:08:19;102645.53;;;11.12;47.36
54870;BME280;40756;-37.950;145.008;2022-07-29T02:10:51;102643.14;;;11.27;48.07
54870;BME280;40756;-37.950;145.008;2022-07-29T02:13:23;102642.69;;;11.14;50.14
54870;BME280;40756;-37.950;145.008;2022-07-29T02:15:54;102638.16;;;11.59;49.83
54870;BME280;40756;-37.950;145.008;2022-07-29T02:18:26;102633.84;;;11.22;49.85
54870;BME280;40756;-37.950;145.008;2022-07-29T02:20:58;102633.03;;;11.19;50.33
54870;BME280;40756;-37.950;145.008;2022-07-29T02:23:28;102627.39;;;11.03;50.23
54870;BME280;40756;-37.950;145.008;2022-07-29T02:26:00;102626.39;;;11.59;49.57
54870;BME280;40756;-37.950;145.008;2022-07-29T02:28:31;102620.34;;;11.20;50.18
54870;BME280;40756;-37.950;145.008;2022-07-29T02:31:03;102618.44;;;11.45;48.93
54870;BME280;40756;-37.950;145.008;2022-07-29T02:33:33;102614.13;;;12.28;48.74
54870;BME280;40756;-37.950;145.008;2022-07-29T02:36:04;102612.28;;;12.09;46.63
54870;BME280;40756;-37.950;145.008;2022-07-29T02:38:36;102612.74;;;12.32;47.00
54870;BME280;40756;-37.950;145.008;2022-07-29T02:41:10;102603.36;;;13.32;44.94
54870;BME280;40756;-37.950;145.008;2022-07-29T02:43:43;102596.00;;;14.07;42.36
54870;BME280;40756;-37.950;145.008;2022-07-29T02:46:16;102590.01;;;14.11;41.91
54870;BME280;40756;-37.950;145.008;2022-07-29T02:48:56;102586.73;;;14.43;40.90
54870;BME280;40756;-37.950;145.008;2022-07-29T02:51:33;102578.22;;;15.78;40.00
54870;BME280;40756;-37.950;145.008;2022-07-29T02:54:09;102581.04;;;15.34;39.19
54870;BME280;40756;-37.950;145.008;2022-07-29T02:56:40;102577.40;;;14.18;40.14
54870;BME280;40756;-37.950;145.008;2022-07-29T02:59:13;102574.90;;;14.59;38.55
54870;BME280;40756;-37.950;145.008;2022-07-29T03:01:44;102576.21;;;14.09;39.25
54870;BME280;40756;-37.950;145.008;2022-07-29T03:04:15;102575.93;;;14.16;37.92
54870;BME280;40756;-37.950;145.008;2022-07-29T03:06:49;102576.98;;;13.90;38.59
54870;BME280;40756;-37.950;145.008;2022-07-29T03:09:19;102578.98;;;14.28;39.56
54870;BME280;40756;-37.950;145.008;2022-07-29T03:11:51;102581.73;;;13.34;40.17
54870;BME280;40756;-37.950;145.008;2022-07-29T03:14:20;102586.55;;;12.85;39.88
54870;BME280;40756;-37.950;145.008;2022-07-29T03:16:51;102584.62;;;13.28;41.20
54870;BME280;40756;-37.950;145.008;2022-07-29T03:19:21;102584.93;;;12.62;40.70
54870;BME280;40756;-37.950;145.008;2022-07-29T03:21:51;102582.71;;;12.75;40.20
54870;BME280;40756;-37.950;145.008;2022-07-29T03:24:27;102582.61;;;12.51;41.65
54870;BME280;40756;-37.950;145.008;2022-07-29T03:26:58;102577.60;;;12.92;39.05
54870;BME280;40756;-37.950;145.008;2022-07-29T03:29:28;102577.18;;;13.19;40.90
54870;BME280;40756;-37.950;145.008;2022-07-29T03:31:59;102576.68;;;13.48;41.99
54870;BME280;40756;-37.950;145.008;2022-07-29T03:34:28;102575.72;;;13.49;41.51
54870;BME280;40756;-37.950;145.008;2022-07-29T03:36:58;102575.27;;;12.94;42.67
54870;BME280;40756;-37.950;145.008;2022-07-29T03:39:31;102568.39;;;13.26;41.26
54870;BME280;40756;-37.950;145.008;2022-07-29T03:42:02;102568.76;;;13.01;41.42
54870;BME280;40756;-37.950;145.008;2022-07-29T03:44:36;102563.87;;;12.96;40.26
54870;BME280;40756;-37.950;145.008;2022-07-29T03:47:08;102568.44;;;12.67;41.03
54870;BME280;40756;-37.950;145.008;2022-07-29T03:49:39;102568.19;;;12.83;42.16
54870;BME280;40756;-37.950;145.008;2022-07-29T03:52:15;102567.96;;;13.57;40.79
54870;BME280;40756;-37.950;145.008;2022-07-29T03:54:45;102568.59;;;14.00;42.62
54870;BME280;40756;-37.950;145.008;2022-07-29T03:57:17;102572.35;;;12.78;42.40
54870;BME280;40756;-37.950;145.008;2022-07-29T03:59:48;102570.93;;;13.29;43.49
54870;BME280;40756;-37.950;145.008;2022-07-29T04:02:18;102573.60;;;12.37;45.13
54870;BME280;40756;-37.950;145.008;2022-07-29T04:04:48;102572.01;;;12.59;45.49
54870;BME280;40756;-37.950;145.008;2022-07-29T04:07:17;102565.95;;;13.57;42.24
54870;BME280;40756;-37.950;145.008;2022-07-29T04:09:47;102571.85;;;13.16;43.00
54870;BME280;40756;-37.950;145.008;2022-07-29T04:12:17;102570.40;;;12.47;41.28
54870;BME280;40756;-37.950;145.008;2022-07-29T04:14:47;102566.60;;;12.76;43.65
54870;BME280;40756;-37.950;145.008;2022-07-29T04:17:16;102563.20;;;13.31;41.32
54870;BME280;40756;-37.950;145.008;2022-07-29T04:19:46;102565.49;;;12.23;42.93
54870;BME280;40756;-37.950;145.008;2022-07-29T04:22:15;102561.17;;;13.38;40.28
54870;BME280;40756;-37.950;145.008;2022-07-29T04:24:45;102561.19;;;13.30;41.34
54870;BME280;40756;-37.950;145.008;2022-07-29T04:27:15;102560.87;;;13.48;42.51
54870;BME280;40756;-37.950;145.008;2022-07-29T04:29:44;102559.32;;;12.97;43.17
54870;BME280;40756;-37.950;145.008;2022-07-29T04:32:14;102560.66;;;13.51;42.62
54870;BME280;40756;-37.950;145.008;2022-07-29T04:34:44;102558.97;;;13.14;44.10
54870;BME280;40756;-37.950;145.008;2022-07-29T04:37:14;102563.03;;;12.38;44.62
54870;BME280;40756;-37.950;145.008;2022-07-29T04:39:43;102559.23;;;12.51;43.41
54870;BME280;40756;-37.950;145.008;2022-07-29T04:42:13;102559.51;;;12.72;42.89
54870;BME280;40756;-37.950;145.008;2022-07-29T04:44:44;102557.57;;;12.57;42.48
54870;BME280;40756;-37.950;145.008;2022-07-29T04:47:13;102561.68;;;12.24;43.74
54870;BME280;40756;-37.950;145.008;2022-07-29T04:49:44;102560.62;;;13.10;42.59
54870;BME280;40756;-37.950;145.008;2022-07-29T04:52:13;102563.43;;;12.98;42.79
54870;BME280;40756;-37.950;145.008;2022-07-29T04:54:43;102561.52;;;12.98;43.08
54870;BME280;40756;-37.950;145.008;2022-07-29T04:57:12;102557.44;;;13.04;42.82
54870;BME280;40756;-37.950;145.008;2022-07-29T04:59:42;102552.54;;;13.08;41.94
54870;BME280;40756;-37.950;145.008;2022-07-29T05:02:12;102548.68;;;13.12;41.73
54870;BME280;40756;-37.950;145.008;2022-07-29T05:04:42;102552.58;;;12.85;42.32
54870;BME280;40756;-37.950;145.008;2022-07-29T05:07:12;102551.60;;;12.98;42.33
54870;BME280;40756;-37.950;145.008;2022-07-29T05:09:42;102555.75;;;13.08;42.31
54870;BME280;40756;-37.950;145.008;2022-07-29T05:12:12;102556.19;;;12.70;43.58
54870;BME280;40756;-37.950;145.008;2022-07-29T05:14:41;102558.13;;;12.68;43.35
54870;BME280;40756;-37.950;145.008;2022-07-29T05:17:11;102555.03;;;12.83;43.89
54870;BME280;40756;-37.950;145.008;2022-07-29T05:19:41;102552.98;;;13.15;43.74
54870;BME280;40756;-37.950;145.008;2022-07-29T05:22:10;102553.80;;;13.07;43.60
54870;BME280;40756;-37.950;145.008;2022-07-29T05:24:40;102551.29;;;13.09;43.50
54870;BME280;40756;-37.950;145.008;2022-07-29T05:27:10;102552.06;;;13.03;43.52
54870;BME280;40756;-37.950;145.008;2022-07-29T05:29:40;102549.32;;;13.60;42.07
54870;BME280;40756;-37.950;145.008;2022-07-29T05:32:09;102551.19;;;12.87;42.69
54870;BME280;40756;-37.950;145.008;2022-07-29T05:34:39;102549.63;;;13.32;42.77
54870;BME280;40756;-37.950;145.008;2022-07-29T05:37:08;102548.83;;;13.57;41.57
54870;BME280;40756;-37.950;145.008;2022-07-29T05:39:38;102552.61;;;13.37;42.89
54870;BME280;40756;-37.950;145.008;2022-07-29T05:42:10;102550.75;;;13.50;42.84
54870;BME280;40756;-37.950;145.008;2022-07-29T05:44:40;102547.68;;;13.24;40.97
54870;BME280;40756;-37.950;145.008;2022-07-29T05:47:11;102545.26;;;14.01;39.35
54870;BME280;40756;-37.950;145.008;2022-07-29T05:49:40;102542.60;;;14.16;37.32
54870;BME280;40756;-37.950;145.008;2022-07-29T05:52:10;102540.49;;;14.03;35.99
54870;BME280;40756;-37.950;145.008;2022-07-29T05:54:40;102540.88;;;13.97;36.26
54870;BME280;40756;-37.950;145.008;2022-07-29T05:57:15;102541.71;;;14.76;36.26
54870;BME280;40756;-37.950;145.008;2022-07-29T05:59:45;102543.39;;;13.76;36.51
54870;BME280;40756;-37.950;145.008;2022-07-29T06:02:16;102536.02;;;14.31;37.16
54870;BME280;40756;-37.950;145.008;2022-07-29T06:04:46;102541.80;;;13.60;38.22
54870;BME280;40756;-37.950;145.008;2022-07-29T06:07:16;102541.29;;;13.54;38.58
54870;BME280;40756;-37.950;145.008;2022-07-29T06:09:45;102542.17;;;14.05;38.89
54870;BME280;40756;-37.950;145.008;2022-07-29T06:12:15;102542.60;;;13.53;37.89
54870;BME280;40756;-37.950;145.008;2022-07-29T06:14:45;102544.24;;;13.71;38.38
54870;BME280;40756;-37.950;145.008;2022-07-29T06:17:16;102541.90;;;14.04;38.06
54870;BME280;40756;-37.950;145.008;2022-07-29T06:19:45;102541.93;;;14.09;38.25
54870;BME280;40756;-37.950;145.008;2022-07-29T06:22:16;102542.37;;;13.85;38.68
54870;BME280;40756;-37.950;145.008;2022-07-29T06:24:46;102540.57;;;13.58;37.77
54870;BME280;40756;-37.950;145.008;2022-07-29T06:27:16;102543.08;;;13.34;38.96
54870;BME280;40756;-37.950;145.008;2022-07-29T06:29:45;102540.16;;;13.71;38.28
54870;BME280;40756;-37.950;145.008;2022-07-29T06:32:15;102538.55;;;13.89;38.36
54870;BME280;40756;-37.950;145.008;2022-07-29T06:34:45;102535.40;;;14.47;37.38
54870;BME280;40756;-37.950;145.008;2022-07-29T06:37:14;102534.77;;;14.76;36.59
54870;BME280;40756;-37.950;145.008;2022-07-29T06:39:44;102534.50;;;14.48;36.29
54870;BME280;40756;-37.950;145.008;2022-07-29T06:42:14;102534.66;;;15.43;35.89
54870;BME280;40756;-37.950;145.008;2022-07-29T06:44:43;102534.71;;;14.84;35.33
54870;BME280;40756;-37.950;145.008;2022-07-29T06:47:14;102536.36;;;14.78;36.02
54870;BME280;40756;-37.950;145.008;2022-07-29T06:49:43;102536.25;;;14.31;36.88
54870;BME280;40756;-37.950;145.008;2022-07-29T06:52:13;102538.02;;;13.46;38.13
54870;BME280;40756;-37.950;145.008;2022-07-29T06:54:43;102541.18;;;13.05;38.71
54870;BME280;40756;-37.950;145.008;2022-07-29T06:57:12;102539.79;;;13.08;39.02
54870;BME280;40756;-37.950;145.008;2022-07-29T06:59:42;102545.45;;;12.64;39.30
54870;BME280;40756;-37.950;145.008;2022-07-29T07:02:12;102545.55;;;12.58;40.03
54870;BME280;40756;-37.950;145.008;2022-07-29T07:04:42;102547.80;;;12.98;40.02
54870;BME280;40756;-37.950;145.008;2022-07-29T07:07:11;102551.42;;;12.81;40.54
54870;BME280;40756;-37.950;145.008;2022-07-29T07:09:41;102551.99;;;12.76;40.20
54870;BME280;40756;-37.950;145.008;2022-07-29T07:12:11;102553.06;;;12.62;40.49
54870;BME280;40756;-37.950;145.008;2022-07-29T07:14:41;102550.85;;;12.51;40.78
54870;BME280;40756;-37.950;145.008;2022-07-29T07:17:11;102549.79;;;12.49;41.17
54870;BME280;40756;-37.950;145.008;2022-07-29T07:19:40;102549.44;;;12.41;41.83
54870;BME280;40756;-37.950;145.008;2022-07-29T07:22:10;102547.47;;;12.36;41.91
54870;BME280;40756;-37.950;145.008;2022-07-29T07:24:40;102549.58;;;12.17;42.50
54870;BME280;40756;-37.950;145.008;2022-07-29T07:27:10;102547.64;;;12.08;42.95
54870;BME280;40756;-37.950;145.008;2022-07-29T07:29:40;102544.95;;;12.38;42.98
54870;BME280;40756;-37.950;145.008;2022-07-29T07:32:11;102543.96;;;12.12;43.29
54870;BME280;40756;-37.950;145.008;2022-07-29T07:34:41;102541.18;;;11.91;44.41
54870;BME280;40756;-37.950;145.008;2022-07-29T07:37:10;102539.28;;;11.74;44.39
54870;BME280;40756;-37.950;145.008;2022-07-29T07:39:40;102538.98;;;11.46;44.77
54870;BME280;40756;-37.950;145.008;2022-07-29T07:42:10;102538.44;;;11.31;44.96
54870;BME280;40756;-37.950;145.008;2022-07-29T07:44:39;102540.29;;;11.13;45.83
54870;BME280;40756;-37.950;145.008;2022-07-29T07:47:09;102541.53;;;11.07;46.03
54870;BME280;40756;-37.950;145.008;2022-07-29T07:49:40;102540.21;;;11.23;45.75
54870;BME280;40756;-37.950;145.008;2022-07-29T07:52:10;102540.33;;;10.79;46.33
54870;BME280;40756;-37.950;145.008;2022-07-29T07:54:40;102542.84;;;10.85;46.47
54870;BME280;40756;-37.950;145.008;2022-07-29T07:57:10;102542.05;;;11.15;46.73
54870;BME280;40756;-37.950;145.008;2022-07-29T07:59:44;102539.36;;;11.04;46.77
54870;BME280;40756;-37.950;145.008;2022-07-29T08:02:13;102542.69;;;10.65;47.05
54870;BME280;40756;-37.950;145.008;2022-07-29T08:04:43;102543.58;;;10.33;47.32
54870;BME280;40756;-37.950;145.008;2022-07-29T08:07:13;102546.35;;;10.68;47.28
54870;BME280;40756;-37.950;145.008;2022-07-29T08:09:43;102549.29;;;10.54;47.58
54870;BME280;40756;-37.950;145.008;2022-07-29T08:12:12;102549.64;;;10.54;47.63
54870;BME280;40756;-37.950;145.008;2022-07-29T08:14:42;102547.55;;;10.48;47.81
54870;BME280;40756;-37.950;145.008;2022-07-29T08:17:12;102549.39;;;10.39;47.67
54870;BME280;40756;-37.950;145.008;2022-07-29T08:19:42;102549.97;;;10.29;48.13
54870;BME280;40756;-37.950;145.008;2022-07-29T08:22:12;102550.20;;;10.09;48.06
54870;BME280;40756;-37.950;145.008;2022-07-29T08:24:42;102547.32;;;9.97;48.29
54870;BME280;40756;-37.950;145.008;2022-07-29T08:27:12;102550.34;;;9.89;48.43
54870;BME280;40756;-37.950;145.008;2022-07-29T08:29:42;102550.88;;;10.03;48.61
54870;BME280;40756;-37.950;145.008;2022-07-29T08:32:12;102553.29;;;10.21;48.50
54870;BME280;40756;-37.950;145.008;2022-07-29T08:34:42;102549.99;;;9.88;48.81
54870;BME280;40756;-37.950;145.008;2022-07-29T08:37:12;102546.86;;;10.00;48.69
54870;BME280;40756;-37.950;145.008;2022-07-29T08:39:41;102546.92;;;9.64;48.82
54870;BME280;40756;-37.950;145.008;2022-07-29T08:42:12;102550.05;;;9.85;49.30
54870;BME280;40756;-37.950;145.008;2022-07-29T08:44:42;102550.92;;;9.75;49.12
54870;BME280;40756;-37.950;145.008;2022-07-29T08:47:15;102550.16;;;9.61;49.29
54870;BME280;40756;-37.950;145.008;2022-07-29T08:49:45;102552.49;;;9.57;49.42
54870;BME280;40756;-37.950;145.008;2022-07-29T08:52:15;102552.80;;;9.43;49.59
54870;BME280;40756;-37.950;145.008;2022-07-29T08:54:45;102553.21;;;9.39;49.59
54870;BME280;40756;-37.950;145.008;2022-07-29T08:57:15;102558.07;;;9.47;49.88
54870;BME280;40756;-37.950;145.008;2022-07-29T08:59:47;102557.02;;;9.14;50.39
54870;BME280;40756;-37.950;145.008;2022-07-29T09:02:21;102558.06;;;9.03;50.62
54870;BME280;40756;-37.950;145.008;2022-07-29T09:04:51;102562.60;;;9.00;50.67
54870;BME280;40756;-37.950;145.008;2022-07-29T09:07:21;102565.75;;;8.87;50.92
54870;BME280;40756;-37.950;145.008;2022-07-29T09:09:51;102565.32;;;9.26;51.01
54870;BME280;40756;-37.950;145.008;2022-07-29T09:12:20;102563.18;;;8.76;51.26
54870;BME280;40756;-37.950;145.008;2022-07-29T09:14:50;102567.59;;;9.11;51.25
54870;BME280;40756;-37.950;145.008;2022-07-29T09:17:40;102567.17;;;8.73;51.26
54870;BME280;40756;-37.950;145.008;2022-07-29T09:20:13;102569.67;;;8.69;51.32
54870;BME280;40756;-37.950;145.008;2022-07-29T09:22:43;102570.46;;;8.43;51.60
54870;BME280;40756;-37.950;145.008;2022-07-29T09:25:13;102571.00;;;8.79;51.58
54870;BME280;40756;-37.950;145.008;2022-07-29T09:27:51;102577.05;;;8.70;51.80
54870;BME280;40756;-37.950;145.008;2022-07-29T09:30:20;102575.74;;;8.58;51.83
54870;BME280;40756;-37.950;145.008;2022-07-29T09:32:59;102577.21;;;8.59;51.99
54870;BME280;40756;-37.950;145.008;2022-07-29T09:35:29;102575.41;;;8.52;52.04
54870;BME280;40756;-37.950;145.008;2022-07-29T09:38:11;102574.84;;;8.20;52.38
54870;BME280;40756;-37.950;145.008;2022-07-29T09:40:41;102572.03;;;8.42;52.68
54870;BME280;40756;-37.950;145.008;2022-07-29T09:43:24;102573.85;;;8.32;52.69
54870;BME280;40756;-37.950;145.008;2022-07-29T09:45:55;102576.06;;;8.30;53.00
54870;BME280;40756;-37.950;145.008;2022-07-29T09:48:25;102579.28;;;8.29;53.06
54870;BME280;40756;-37.950;145.008;2022-07-29T09:50:56;102582.70;;;8.27;53.06
54870;BME280;40756;-37.950;145.008;2022-07-29T09:53:34;102583.83;;;8.24;53.34
54870;BME280;40756;-37.950;145.008;2022-07-29T09:56:04;102582.66;;;8.30;52.57
54870;BME280;40756;-37.950;145.008;2022-07-29T09:58:34;102586.93;;;8.15;52.78
54870;BME280;40756;-37.950;145.008;2022-07-29T10:01:04;102591.63;;;8.37;52.97
54870;BME280;40756;-37.950;145.008;2022-07-29T10:03:33;102593.13;;;8.09;53.00
54870;BME280;40756;-37.950;145.008;2022-07-29T11:08:21;102604.53;;;8.09;54.44
54870;BME280;40756;-37.950;145.008;2022-07-29T11:10:50;102602.11;;;6.36;53.52
54870;BME280;40756;-37.950;145.008;2022-07-29T11:13:52;102600.85;;;6.56;52.27
54870;BME280;40756;-37.950;145.008;2022-07-29T11:16:21;102595.63;;;6.27;53.26
54870;BME280;40756;-37.950;145.008;2022-07-29T11:20:32;102596.63;;;6.71;52.13
54870;BME280;40756;-37.950;145.008;2022-07-29T11:23:01;102591.13;;;6.83;51.75
54870;BME280;40756;-37.950;145.008;2022-07-29T11:25:30;102589.09;;;6.87;50.72
54870;BME280;40756;-37.950;145.008;2022-07-29T11:28:12;102586.85;;;7.00;49.61
54870;BME280;40756;-37.950;145.008;2022-07-29T11:30:57;102584.85;;;7.04;49.52
54870;BME280;40756;-37.950;145.008;2022-07-29T11:33:30;102582.57;;;8.19;50.06
54870;BME280;40756;-37.950;145.008;2022-07-29T11:36:10;102584.18;;;8.05;51.30
54870;BME280;40756;-37.950;145.008;2022-07-29T11:38:40;102584.44;;;7.71;52.18
54870;BME280;40756;-37.950;145.008;2022-07-29T11:41:26;102582.68;;;7.53;52.62
54870;BME280;40756;-37.950;145.008;2022-07-29T11:43:57;102581.79;;;7.79;52.77
54870;BME280;40756;-37.950;145.008;2022-07-29T11:46:59;102580.10;;;7.42;53.12
54870;BME280;40756;-37.950;145.008;2022-07-29T11:49:29;102580.98;;;7.22;53.41
54870;BME280;40756;-37.950;145.008;2022-07-29T11:51:59;102581.54;;;7.26;53.46
54870;BME280;40756;-37.950;145.008;2022-07-29T11:54:32;102581.61;;;7.22;53.76
54870;BME280;40756;-37.950;145.008;2022-07-29T11:57:02;102584.21;;;7.21;53.69
54870;BME280;40756;-37.950;145.008;2022-07-29T11:59:32;102586.01;;;7.16;53.93
54870;BME280;40756;-37.950;145.008;2022-07-29T12:02:08;102584.64;;;6.81;54.23
54870;BME280;40756;-37.950;145.008;2022-07-29T12:04:50;102586.12;;;7.18;54.15
54870;BME280;40756;-37.950;145.008;2022-07-29T12:07:26;102585.64;;;6.87;54.17
54870;BME280;40756;-37.950;145.008;2022-07-29T12:09:57;102584.67;;;6.84;54.10
54870;BME280;40756;-37.950;145.008;2022-07-29T12:12:26;102582.69;;;7.03;54.06
54870;BME280;40756;-37.950;145.008;2022-07-29T12:14:57;102583.49;;;6.83;54.19
54870;BME280;40756;-37.950;145.008;2022-07-29T12:17:28;102585.44;;;6.82;54.03
54870;BME280;40756;-37.950;145.008;2022-07-29T12:20:01;102585.55;;;6.83;53.95
54870;BME280;40756;-37.950;145.008;2022-07-29T12:22:33;102586.28;;;6.72;54.02
54870;BME280;40756;-37.950;145.008;2022-07-29T12:25:05;102589.54;;;6.93;54.16
54870;BME280;40756;-37.950;145.008;2022-07-29T12:27:41;102588.93;;;6.64;54.01
54870;BME280;40756;-37.950;145.008;2022-07-29T12:30:12;102588.85;;;6.76;53.87
54870;BME280;40756;-37.950;145.008;2022-07-29T12:32:44;102592.62;;;6.36;54.45
54870;BME280;40756;-37.950;145.008;2022-07-29T12:35:15;102594.45;;;6.69;54.50
54870;BME280;40756;-37.950;145.008;2022-07-29T12:37:47;102591.32;;;6.64;54.79
54870;BME280;40756;-37.950;145.008;2022-07-29T12:40:18;102589.81;;;6.59;54.62
54870;BME280;40756;-37.950;145.008;2022-07-29T12:43:11;102584.84;;;6.63;54.94
54870;BME280;40756;-37.950;145.008;2022-07-29T12:45:45;102584.63;;;6.66;55.23
54870;BME280;40756;-37.950;145.008;2022-07-29T12:48:16;102582.79;;;6.59;54.90
54870;BME280;40756;-37.950;145.008;2022-07-29T12:50:58;102587.45;;;6.83;55.00
54870;BME280;40756;-37.950;145.008;2022-07-29T12:53:30;102592.60;;;6.61;55.05
54870;BME280;40756;-37.950;145.008;2022-07-29T12:56:01;102595.84;;;6.55;54.86
54870;BME280;40756;-37.950;145.008;2022-07-29T12:58:32;102595.42;;;6.34;54.56
54870;BME280;40756;-37.950;145.008;2022-07-29T13:01:06;102589.99;;;6.79;54.79
54870;BME280;40756;-37.950;145.008;2022-07-29T13:03:48;102586.64;;;6.54;54.59
54870;BME280;40756;-37.950;145.008;2022-07-29T13:06:38;102582.24;;;6.56;54.38
54870;BME280;40756;-37.950;145.008;2022-07-29T13:09:10;102579.85;;;6.36;54.51
54870;BME280;40756;-37.950;145.008;2022-07-29T13:11:43;102576.86;;;6.44;54.89
54870;BME280;40756;-37.950;145.008;2022-07-29T13:14:29;102569.35;;;6.35;54.94
54870;BME280;40756;-37.950;145.008;2022-07-29T13:17:06;102566.95;;;6.13;54.73
54870;BME280;40756;-37.950;145.008;2022-07-29T13:19:37;102565.56;;;6.53;54.92
54870;BME280;40756;-37.950;145.008;2022-07-29T13:22:08;102566.11;;;6.29;54.76
54870;BME280;40756;-37.950;145.008;2022-07-29T13:24:49;102567.71;;;6.29;55.05
54870;BME280;40756;-37.950;145.008;2022-07-29T13:27:22;102567.98;;;6.28;55.05
54870;BME280;40756;-37.950;145.008;2022-07-29T13:29:52;102565.09;;;6.56;55.23
54870;BME280;40756;-37.950;145.008;2022-07-29T13:32:25;102568.65;;;6.24;55.23
54870;BME280;40756;-37.950;145.008;2022-07-29T13:34:55;102566.23;;;6.57;55.12
54870;BME280;40756;-37.950;145.008;2022-07-29T13:37:26;102562.19;;;6.29;54.88
54870;BME280;40756;-37.950;145.008;2022-07-29T13:39:55;102563.47;;;6.23;54.63
54870;BME280;40756;-37.950;145.008;2022-07-29T13:42:26;102561.12;;;6.16;54.71
54870;BME280;40756;-37.950;145.008;2022-07-29T13:44:56;102561.36;;;6.11;54.80
54870;BME280;40756;-37.950;145.008;2022-07-29T13:47:26;102559.26;;;6.34;54.78
54870;BME280;40756;-37.950;145.008;2022-07-29T13:49:56;102553.13;;;6.27;54.82